Time;durP1;ratioP1;P1;durP2;ratioP2;P2;SDS_P1;SDS_P2;PMS_P1;PMS_P2;Temp;Humidity;BMP_temperature;BMP_pressure;BME280_temperature;BME280_humidity;BME280_pressure;Samples;Min_cycle;Max_cycle;Signal;HPM_P1;HPM_P2
2022/11/28 00:02:07;;;;;;;;;;;8.40;99.90;;;;;;5072429;28;19915;-76
2022/11/28 00:04:33;;;;;;;;;;;8.30;99.90;;;;;;5072697;28;19927;-76
2022/11/28 00:06:58;;;;;;;;;;;8.30;99.90;;;;;;5073388;28;20377;-77
2022/11/28 00:09:24;;;;;;;;;;;8.20;99.90;;;;;;5072237;28;20120;-76
2022/11/28 00:11:49;;;;;;;;;;;8.20;99.90;;;;;;5056027;28;19919;-76
2022/11/28 00:14:17;;;;;;;;;;;8.10;99.90;;;;;;5052251;28;19909;-76
2022/11/28 00:16:42;;;;;;;;;;;8.10;99.90;;;;;;5052728;28;20281;-77
2022/11/28 00:19:09;;;;;;;;;;;8.10;99.90;;;;;;5052678;28;19909;-76
2022/11/28 00:21:34;;;;;;;;;;;8.10;99.90;;;;;;5052960;28;20417;-77
2022/11/28 00:24:00;;;;;;;;;;;8.00;99.90;;;;;;5035369;28;19983;-76
2022/11/28 00:26:30;;;;;;;;;;;8.00;99.90;;;;;;5052142;28;19920;-76
2022/11/28 00:28:56;;;;;;;;;;;8.00;99.90;;;;;;5052784;28;19909;-77
2022/11/28 00:31:26;;;;;;;;;;;8.10;99.90;;;;;;5052482;28;19909;-76
2022/11/28 00:33:52;;;;;;;;;;;8.10;99.90;;;;;;5052222;28;19931;-76
2022/11/28 00:36:19;;;;;;;;;;;8.10;99.90;;;;;;5052168;28;20350;-76
2022/11/28 00:38:45;;;;;;;;;;;8.10;99.90;;;;;;5052942;28;20012;-75
2022/11/28 00:41:14;;;;;;;;;;;8.10;99.90;;;;;;5051995;28;20415;-75
2022/11/28 00:43:41;;;;;;;;;;;8.10;99.90;;;;;;5052681;28;20378;-75
2022/11/28 00:46:07;;;;;;;;;;;8.10;99.90;;;;;;5051941;28;19913;-75
2022/11/28 00:48:33;;;;;;;;;;;8.00;99.90;;;;;;5034619;28;19967;-75
2022/11/28 00:51:09;;;;;;;;;;;8.00;99.90;;;;;;5052598;28;20274;-75
2022/11/28 00:53:35;;;;;;;;;;;8.00;99.90;;;;;;5052483;28;19909;-75
2022/11/28 00:56:03;;;;;;;;;;;8.00;99.90;;;;;;5052396;28;19958;-75
2022/11/28 00:58:28;;;;;;;;;;;7.90;99.90;;;;;;5051968;28;20358;-75
2022/11/28 01:00:54;;;;;;;;;;;7.90;99.90;;;;;;5052342;28;19916;-75
2022/11/28 01:03:19;;;;;;;;;;;7.80;99.90;;;;;;5051412;28;19917;-75
2022/11/28 01:05:45;;;;;;;;;;;7.80;99.90;;;;;;5064968;28;19956;-75
2022/11/28 01:08:10;;;;;;;;;;;7.80;99.90;;;;;;5071896;28;20353;-75
2022/11/28 01:10:43;;;;;;;;;;;7.80;99.90;;;;;;5072071;28;19969;-75
2022/11/28 01:13:09;;;;;;;;;;;7.80;99.90;;;;;;5071137;28;19912;-75
2022/11/28 01:15:35;;;;;;;;;;;7.70;99.90;;;;;;5072216;28;19965;-75
2022/11/28 01:18:01;;;;;;;;;;;7.70;99.90;;;;;;5071933;28;19912;-75
2022/11/28 01:20:27;;;;;;;;;;;7.70;99.90;;;;;;5071302;28;19909;-75
2022/11/28 01:22:52;;;;;;;;;;;7.70;99.90;;;;;;5071926;28;20057;-75
2022/11/28 01:25:18;;;;;;;;;;;7.60;99.90;;;;;;5071782;28;19913;-74
2022/11/28 01:27:43;;;;;;;;;;;7.60;99.90;;;;;;5053958;28;20015;-74
2022/11/28 01:30:09;;;;;;;;;;;7.60;99.90;;;;;;5053803;28;19909;-75
2022/11/28 01:32:35;;;;;;;;;;;7.60;99.90;;;;;;5072605;28;20013;-75
2022/11/28 01:35:00;;;;;;;;;;;7.60;99.90;;;;;;5072387;28;19973;-75
2022/11/28 01:37:28;;;;;;;;;;;7.60;99.90;;;;;;5071574;28;19938;-74
2022/11/28 01:39:53;;;;;;;;;;;7.50;99.90;;;;;;5072083;28;19909;-74
2022/11/28 01:42:19;;;;;;;;;;;7.60;99.90;;;;;;5071663;28;19909;-75
2022/11/28 01:44:47;;;;;;;;;;;7.60;99.90;;;;;;5072079;28;20014;-75
2022/11/28 01:47:14;;;;;;;;;;;7.60;99.90;;;;;;5053591;28;19913;-75
2022/11/28 01:49:40;;;;;;;;;;;7.60;99.90;;;;;;5072472;28;19974;-75
2022/11/28 01:52:11;;;;;;;;;;;7.70;99.90;;;;;;5072267;28;20325;-74
2022/11/28 01:54:38;;;;;;;;;;;7.70;99.90;;;;;;5072531;28;19908;-74
2022/11/28 01:57:06;;;;;;;;;;;7.70;99.90;;;;;;5072402;28;19909;-75
2022/11/28 01:59:34;;;;;;;;;;;7.70;99.90;;;;;;5071783;28;19916;-74
2022/11/28 02:02:00;;;;;;;;;;;7.70;99.90;;;;;;5072071;28;20351;-74
2022/11/28 02:04:27;;;;;;;;;;;7.80;99.90;;;;;;5071296;28;19909;-73
2022/11/28 02:06:53;;;;;;;;;;;7.80;99.90;;;;;;5054339;28;19908;-74
2022/11/28 02:09:18;;;;;;;;;;;7.70;99.90;;;;;;5071939;28;19918;-74
2022/11/28 02:11:59;;;;;;;;;;;7.70;99.90;;;;;;5072363;28;20266;-74
2022/11/28 02:14:33;;;;;;;;;;;7.70;99.90;;;;;;5075224;28;19909;-74
2022/11/28 02:17:07;;;;;;;;;;;7.70;99.90;;;;;;5075454;28;20277;-74
2022/11/28 02:19:33;;;;;;;;;;;7.60;99.90;;;;;;5075235;28;19948;-74
2022/11/28 02:22:04;;;;;;;;;;;7.60;99.90;;;;;;5075450;28;19916;-74
2022/11/28 02:24:44;;;;;;;;;;;7.60;99.90;;;;;;5075070;28;20508;-74
2022/11/28 02:27:29;;;;;;;;;;;7.50;99.90;;;;;;5074853;28;19917;-74
2022/11/28 02:30:24;;;;;;;;;;;7.60;99.90;;;;;;5075599;28;19908;-74
2022/11/28 02:32:50;;;;;;;;;;;7.50;99.90;;;;;;5057519;28;19912;-74
2022/11/28 02:35:21;;;;;;;;;;;7.50;99.90;;;;;;5074731;28;19999;-74
2022/11/28 02:37:56;;;;;;;;;;;7.50;99.90;;;;;;5075240;28;19916;-74
2022/11/28 02:40:24;;;;;;;;;;;7.50;99.90;;;;;;5074804;28;19909;-74
2022/11/28 02:42:57;;;;;;;;;;;7.50;99.90;;;;;;5075330;28;19970;-74
2022/11/28 02:45:28;;;;;;;;;;;7.60;99.90;;;;;;5074794;28;19912;-75
2022/11/28 02:47:57;;;;;;;;;;;7.50;99.90;;;;;;5075067;28;20007;-75
2022/11/28 02:50:33;;;;;;;;;;;7.50;99.90;;;;;;5074306;28;20366;-75
2022/11/28 02:53:03;;;;;;;;;;;7.40;99.90;;;;;;5075400;28;20414;-75
2022/11/28 02:55:28;;;;;;;;;;;7.50;99.90;;;;;;5074450;28;19909;-75
2022/11/28 02:57:54;;;;;;;;;;;7.40;99.90;;;;;;5074970;28;19931;-74
2022/11/28 03:00:26;;;;;;;;;;;7.40;99.90;;;;;;5074513;28;19912;-75
2022/11/28 03:03:10;;;;;;;;;;;7.40;99.90;;;;;;5074749;28;20456;-75
2022/11/28 03:05:38;;;;;;;;;;;7.40;99.90;;;;;;5073421;28;19920;-75
2022/11/28 03:08:10;;;;;;;;;;;7.30;99.90;;;;;;5074918;28;19909;-75
2022/11/28 03:10:48;;;;;;;;;;;7.40;99.90;;;;;;5073864;28;20262;-74
2022/11/28 03:13:31;;;;;;;;;;;7.40;99.90;;;;;;5074132;28;20351;-74
2022/11/28 03:16:16;;;;;;;;;;;7.40;99.90;;;;;;5074732;28;19913;-75
2022/11/28 03:18:54;;;;;;;;;;;7.40;99.90;;;;;;5074381;28;20250;-74
2022/11/28 03:21:28;;;;;;;;;;;7.50;99.90;;;;;;5073912;28;20340;-75
2022/11/28 03:23:58;;;;;;;;;;;7.50;99.90;;;;;;5074241;28;20435;-75
2022/11/28 03:26:44;;;;;;;;;;;7.50;99.90;;;;;;5074179;28;19912;-75
2022/11/28 03:29:21;;;;;;;;;;;7.60;99.90;;;;;;5073153;28;19955;-76
2022/11/28 03:31:58;;;;;;;;;;;7.60;99.90;;;;;;5074198;28;19961;-74
2022/11/28 03:34:25;;;;;;;;;;;7.50;99.90;;;;;;5073851;28;19909;-76
2022/11/28 03:36:54;;;;;;;;;;;7.50;99.90;;;;;;5073787;28;19920;-74
2022/11/28 03:39:30;;;;;;;;;;;7.50;99.90;;;;;;5073458;28;20519;-74
2022/11/28 03:41:58;;;;;;;;;;;7.40;99.90;;;;;;5073995;28;19909;-74
2022/11/28 03:44:29;;;;;;;;;;;7.40;99.90;;;;;;5073510;28;19908;-74
2022/11/28 03:46:56;;;;;;;;;;;7.40;99.90;;;;;;5073823;28;20416;-74
2022/11/28 03:49:25;;;;;;;;;;;7.30;99.90;;;;;;5073762;28;20346;-74
2022/11/28 03:51:54;;;;;;;;;;;7.30;99.90;;;;;;5073965;28;19999;-74
2022/11/28 03:54:25;;;;;;;;;;;7.40;99.90;;;;;;5073348;28;19909;-74
2022/11/28 03:57:00;;;;;;;;;;;7.30;99.90;;;;;;5073665;28;20003;-74
2022/11/28 03:59:33;;;;;;;;;;;7.30;99.90;;;;;;5073293;28;19912;-74
2022/11/28 04:02:19;;;;;;;;;;;7.30;99.90;;;;;;5073451;28;19912;-74
2022/11/28 04:04:44;;;;;;;;;;;7.20;99.90;;;;;;5073713;28;19920;-74
2022/11/28 04:07:19;;;;;;;;;;;7.30;99.90;;;;;;5073430;28;20369;-74
2022/11/28 04:09:55;;;;;;;;;;;7.30;99.90;;;;;;5073427;28;19909;-74
2022/11/28 04:12:27;;;;;;;;;;;7.30;99.90;;;;;;5072913;28;19916;-74
2022/11/28 04:14:55;;;;;;;;;;;7.30;99.90;;;;;;5073370;28;19908;-74
2022/11/28 04:17:36;;;;;;;;;;;7.30;99.90;;;;;;5072848;28;19913;-74
2022/11/28 04:20:08;;;;;;;;;;;7.30;99.90;;;;;;5073309;28;19909;-75
2022/11/28 04:22:36;;;;;;;;;;;7.30;99.90;;;;;;5073007;28;19958;-75
2022/11/28 04:25:13;;;;;;;;;;;7.20;99.90;;;;;;5073143;28;19923;-75
2022/11/28 04:28:00;;;;;;;;;;;7.20;99.90;;;;;;5072826;28;19944;-75
2022/11/28 04:30:26;;;;;;;;;;;7.20;99.90;;;;;;5072451;28;20000;-75
2022/11/28 04:32:56;;;;;;;;;;;7.10;99.90;;;;;;5073017;28;19947;-75
2022/11/28 04:35:27;;;;;;;;;;;7.20;99.90;;;;;;5072143;28;19909;-75
2022/11/28 04:37:53;;;;;;;;;;;7.20;99.90;;;;;;5072728;28;19908;-75
2022/11/28 04:40:21;;;;;;;;;;;7.20;99.90;;;;;;5072833;28;19916;-75
2022/11/28 04:42:48;;;;;;;;;;;7.20;99.90;;;;;;5072836;28;19912;-75
2022/11/28 04:45:15;;;;;;;;;;;7.30;99.90;;;;;;5073074;28;19916;-75
2022/11/28 04:47:42;;;;;;;;;;;7.30;99.90;;;;;;5072808;28;19913;-75
2022/11/28 04:50:07;;;;;;;;;;;7.30;99.90;;;;;;5073446;28;20269;-75
2022/11/28 04:52:39;;;;;;;;;;;7.30;99.90;;;;;;5072803;28;19909;-75
2022/11/28 04:55:25;;;;;;;;;;;7.30;99.90;;;;;;5055504;28;20018;-75
2022/11/28 04:57:53;;;;;;;;;;;7.30;99.90;;;;;;5073189;28;19912;-75
2022/11/28 05:00:19;;;;;;;;;;;7.40;99.90;;;;;;5072665;28;20007;-75
2022/11/28 05:02:48;;;;;;;;;;;7.40;99.90;;;;;;5072368;28;20371;-75
2022/11/28 05:05:18;;;;;;;;;;;7.30;99.90;;;;;;5072344;28;20297;-74
2022/11/28 05:07:44;;;;;;;;;;;7.30;99.90;;;;;;5054137;28;19908;-74
2022/11/28 05:10:11;;;;;;;;;;;7.40;99.90;;;;;;5072775;28;19912;-75
2022/11/28 05:12:36;;;;;;;;;;;7.40;99.90;;;;;;5072012;28;19995;-74
2022/11/28 05:15:02;;;;;;;;;;;7.40;99.90;;;;;;5072525;28;19916;-75
2022/11/28 05:17:28;;;;;;;;;;;7.30;99.90;;;;;;5072066;28;20265;-74
2022/11/28 05:19:53;;;;;;;;;;;7.30;99.90;;;;;;5072444;28;19909;-74
2022/11/28 05:22:19;;;;;;;;;;;7.30;99.90;;;;;;5054598;28;19912;-75
2022/11/28 05:24:44;;;;;;;;;;;7.30;99.90;;;;;;5071927;28;19919;-75
2022/11/28 05:27:10;;;;;;;;;;;7.30;99.90;;;;;;5072276;28;19924;-75
2022/11/28 05:29:36;;;;;;;;;;;7.20;99.90;;;;;;5071924;28;19912;-75
2022/11/28 05:32:01;;;;;;;;;;;7.20;99.90;;;;;;5072698;28;19909;-75
2022/11/28 05:34:28;;;;;;;;;;;7.20;99.90;;;;;;5072108;28;19909;-75
2022/11/28 05:36:54;;;;;;;;;;;7.10;99.90;;;;;;5072354;28;19916;-75
2022/11/28 05:39:19;;;;;;;;;;;7.10;99.90;;;;;;5072398;28;19908;-75
2022/11/28 05:41:45;;;;;;;;;;;7.10;99.90;;;;;;5071924;28;20025;-75
2022/11/28 05:44:10;;;;;;;;;;;7.10;99.90;;;;;;5072587;28;20277;-74
2022/11/28 05:46:36;;;;;;;;;;;7.10;99.90;;;;;;5071706;28;19958;-75
2022/11/28 05:49:02;;;;;;;;;;;7.00;99.90;;;;;;5076264;28;20277;-74
2022/11/28 05:51:27;;;;;;;;;;;7.00;99.90;;;;;;5075781;28;19948;-75
2022/11/28 05:53:53;;;;;;;;;;;7.00;99.90;;;;;;5075939;28;20327;-75
2022/11/28 05:56:19;;;;;;;;;;;7.00;99.90;;;;;;5076144;28;19908;-74
2022/11/28 05:58:45;;;;;;;;;;;7.00;99.90;;;;;;5057744;28;19904;-74
2022/11/28 06:01:21;;;;;;;;;;;7.00;99.90;;;;;;5076118;28;19919;-74
2022/11/28 06:03:47;;;;;;;;;;;7.00;99.90;;;;;;5075529;28;19909;-74
2022/11/28 06:06:17;;;;;;;;;;;7.10;99.90;;;;;;5076062;28;19943;-74
2022/11/28 06:08:43;;;;;;;;;;;7.20;99.90;;;;;;5075080;28;19917;-74
2022/11/28 06:11:09;;;;;;;;;;;7.10;99.90;;;;;;5076051;28;19915;-74
2022/11/28 06:13:35;;;;;;;;;;;7.10;99.90;;;;;;5075366;28;19909;-74
2022/11/28 06:16:01;;;;;;;;;;;7.20;99.90;;;;;;5075864;28;20328;-75
2022/11/28 06:18:26;;;;;;;;;;;7.20;99.90;;;;;;5075515;28;19909;-75
2022/11/28 06:20:52;;;;;;;;;;;7.10;99.90;;;;;;5075380;28;19915;-75
2022/11/28 06:23:17;;;;;;;;;;;7.20;99.90;;;;;;5076173;28;20265;-75
2022/11/28 06:25:43;;;;;;;;;;;7.10;99.90;;;;;;5074951;28;19917;-75
2022/11/28 06:28:09;;;;;;;;;;;7.10;99.90;;;;;;5075271;28;20439;-75
2022/11/28 06:30:34;;;;;;;;;;;7.10;99.90;;;;;;5075277;28;19912;-75
2022/11/28 06:33:00;;;;;;;;;;;7.10;99.90;;;;;;5075427;28;19919;-75
2022/11/28 06:35:25;;;;;;;;;;;7.10;99.90;;;;;;5075392;28;19908;-75
2022/11/28 06:37:51;;;;;;;;;;;7.20;99.90;;;;;;5074781;28;19916;-75
2022/11/28 06:40:16;;;;;;;;;;;7.10;99.90;;;;;;5074885;28;19909;-74
2022/11/28 06:42:42;;;;;;;;;;;7.10;99.90;;;;;;5074758;28;19909;-75
2022/11/28 06:45:08;;;;;;;;;;;7.10;99.90;;;;;;5075527;28;19912;-74
2022/11/28 06:47:34;;;;;;;;;;;7.10;99.90;;;;;;5074604;28;19920;-74
2022/11/28 06:49:59;;;;;;;;;;;7.10;99.90;;;;;;5074789;28;19909;-74
2022/11/28 06:52:25;;;;;;;;;;;7.10;99.90;;;;;;5075141;28;19908;-75
2022/11/28 06:54:50;;;;;;;;;;;7.10;99.90;;;;;;5074550;28;19917;-75
2022/11/28 06:57:16;;;;;;;;;;;7.10;99.90;;;;;;5074901;28;19962;-75
2022/11/28 06:59:42;;;;;;;;;;;7.10;99.90;;;;;;5073845;28;19960;-75
2022/11/28 07:02:09;;;;;;;;;;;7.20;99.90;;;;;;5075059;28;19913;-75
2022/11/28 07:04:35;;;;;;;;;;;7.20;99.90;;;;;;5073966;28;19908;-74
2022/11/28 07:07:00;;;;;;;;;;;7.20;99.90;;;;;;5074986;28;20262;-75
2022/11/28 07:09:26;;;;;;;;;;;7.10;99.90;;;;;;5074624;28;19961;-74
2022/11/28 07:11:52;;;;;;;;;;;7.10;99.90;;;;;;5056125;28;20361;-75
2022/11/28 07:14:17;;;;;;;;;;;7.10;99.90;;;;;;5074502;28;19930;-75
2022/11/28 07:16:43;;;;;;;;;;;7.20;99.90;;;;;;5055999;28;19909;-74
2022/11/28 07:19:09;;;;;;;;;;;7.20;99.90;;;;;;5074413;28;19962;-75
2022/11/28 07:21:35;;;;;;;;;;;7.30;99.90;;;;;;5074023;28;19915;-75
2022/11/28 07:24:01;;;;;;;;;;;7.30;99.90;;;;;;5073980;28;20336;-74
2022/11/28 07:26:26;;;;;;;;;;;7.40;99.90;;;;;;5074034;28;19916;-75
2022/11/28 07:28:54;;;;;;;;;;;7.40;99.90;;;;;;5073727;28;19944;-75
2022/11/28 07:31:27;;;;;;;;;;;7.40;99.90;;;;;;5074213;28;19908;-74
2022/11/28 07:33:53;;;;;;;;;;;7.50;99.90;;;;;;5073797;28;19913;-75
2022/11/28 07:36:26;;;;;;;;;;;7.50;99.90;;;;;;5074004;28;19915;-75
2022/11/28 07:38:53;;;;;;;;;;;7.50;99.90;;;;;;5055588;28;19904;-75
2022/11/28 07:41:19;;;;;;;;;;;7.50;99.90;;;;;;5074021;28;19919;-75
2022/11/28 07:43:45;;;;;;;;;;;7.50;99.90;;;;;;5073517;28;19954;-75
2022/11/28 07:46:12;;;;;;;;;;;7.50;99.90;;;;;;5073884;28;20337;-74
2022/11/28 07:48:38;;;;;;;;;;;7.50;99.90;;;;;;5073514;28;19919;-75
2022/11/28 07:51:07;;;;;;;;;;;7.50;99.90;;;;;;5073635;28;19909;-75
2022/11/28 07:53:33;;;;;;;;;;;7.50;99.90;;;;;;5073702;28;19908;-75
2022/11/28 07:56:03;;;;;;;;;;;7.40;99.90;;;;;;5073540;28;19962;-75
2022/11/28 07:58:29;;;;;;;;;;;7.40;99.90;;;;;;5073823;28;20353;-75
2022/11/28 08:00:55;;;;;;;;;;;7.40;99.90;;;;;;5073184;28;19925;-74
2022/11/28 08:03:20;;;;;;;;;;;7.30;99.90;;;;;;5073720;28;20382;-75
2022/11/28 08:05:48;;;;;;;;;;;7.30;99.90;;;;;;5072476;28;19928;-74
2022/11/28 08:08:17;;;;;;;;;;;7.30;99.90;;;;;;5073697;28;19916;-74
2022/11/28 08:10:43;;;;;;;;;;;7.30;99.90;;;;;;5072044;28;19915;-74
2022/11/28 08:13:09;;;;;;;;;;;7.30;99.90;;;;;;5073913;28;19908;-75
2022/11/28 08:15:36;;;;;;;;;;;7.30;99.90;;;;;;5073142;28;19997;-76
2022/11/28 08:18:02;;;;;;;;;;;7.30;99.90;;;;;;5073342;28;19916;-76
2022/11/28 08:20:27;;;;;;;;;;;7.20;99.90;;;;;;5073477;28;19912;-75
2022/11/28 08:22:53;;;;;;;;;;;7.20;99.90;;;;;;5072566;28;19909;-75
2022/11/28 08:25:19;;;;;;;;;;;7.20;99.90;;;;;;5073192;28;19919;-75
2022/11/28 08:27:44;;;;;;;;;;;7.10;99.90;;;;;;5072606;28;19913;-75
2022/11/28 08:30:10;;;;;;;;;;;7.10;99.90;;;;;;5072900;28;19935;-76
2022/11/28 08:32:35;;;;;;;;;;;7.10;99.90;;;;;;5072693;28;19909;-75
2022/11/28 08:35:01;;;;;;;;;;;7.10;99.90;;;;;;5073076;28;19970;-75
2022/11/28 08:37:27;;;;;;;;;;;7.10;99.90;;;;;;5073051;28;19908;-75
2022/11/28 08:39:53;;;;;;;;;;;7.20;99.90;;;;;;5072645;28;20040;-76
2022/11/28 08:42:18;;;;;;;;;;;7.20;99.90;;;;;;5072458;28;19912;-75
2022/11/28 08:44:44;;;;;;;;;;;7.20;99.90;;;;;;5058479;28;19916;-75
2022/11/28 08:47:10;;;;;;;;;;;7.30;99.90;;;;;;5052876;28;20041;-75
2022/11/28 08:49:36;;;;;;;;;;;7.30;99.90;;;;;;5053216;28;20065;-75
2022/11/28 08:52:02;;;;;;;;;;;7.40;99.90;;;;;;5052513;28;20382;-75
2022/11/28 08:54:28;;;;;;;;;;;7.40;99.90;;;;;;5052725;28;19909;-76
2022/11/28 08:56:53;;;;;;;;;;;7.40;99.90;;;;;;5052171;28;20258;-76
2022/11/28 08:59:19;;;;;;;;;;;7.40;99.90;;;;;;5052405;28;19909;-77
2022/11/28 09:01:44;;;;;;;;;;;7.40;99.90;;;;;;5052239;28;19916;-77
2022/11/28 09:04:10;;;;;;;;;;;7.30;99.90;;;;;;5054948;28;20011;-76
2022/11/28 09:06:37;;;;;;;;;;;7.40;99.90;;;;;;5071941;28;19921;-77
2022/11/28 09:09:03;;;;;;;;;;;7.40;99.90;;;;;;5072634;28;19912;-76
2022/11/28 09:11:28;;;;;;;;;;;7.40;99.90;;;;;;5069237;28;19974;-76
2022/11/28 09:13:54;;;;;;;;;;;7.50;99.90;;;;;;5052064;28;20388;-76
2022/11/28 09:16:20;;;;;;;;;;;7.50;99.90;;;;;;5052485;28;19940;-76
2022/11/28 09:18:45;;;;;;;;;;;7.60;99.90;;;;;;5051433;28;19915;-76
2022/11/28 09:21:12;;;;;;;;;;;7.60;99.90;;;;;;5052849;28;19909;-76
2022/11/28 09:23:39;;;;;;;;;;;7.70;99.90;;;;;;5076054;28;19909;-76
2022/11/28 09:26:09;;;;;;;;;;;7.70;99.90;;;;;;5058287;28;19920;-76
2022/11/28 09:28:35;;;;;;;;;;;7.80;99.90;;;;;;5057723;28;19912;-76
2022/11/28 09:31:01;;;;;;;;;;;7.80;99.90;;;;;;5075456;28;19935;-76
2022/11/28 09:33:27;;;;;;;;;;;7.90;99.90;;;;;;5075882;28;19912;-76
2022/11/28 09:35:54;;;;;;;;;;;7.90;99.90;;;;;;5075004;28;20269;-76
2022/11/28 09:38:20;;;;;;;;;;;7.90;99.90;;;;;;5075400;28;20435;-76
2022/11/28 09:40:46;;;;;;;;;;;7.90;99.90;;;;;;5057163;28;19909;-77
2022/11/28 09:43:19;;;;;;;;;;;7.90;99.90;;;;;;5075344;28;19909;-76
2022/11/28 09:45:47;;;;;;;;;;;7.90;99.90;;;;;;5074907;28;20293;-76
2022/11/28 09:48:16;;;;;;;;;;;7.90;99.90;;;;;;5057642;28;20308;-76
2022/11/28 09:50:42;;;;;;;;;;;7.90;99.90;;;;;;5074348;28;19968;-76
2022/11/28 09:53:44;;;;;;;;;;;7.90;99.90;;;;;;5075211;28;20374;-76
2022/11/28 09:56:16;;;;;;;;;;;7.90;99.90;;;;;;4993434;28;19961;-76
2022/11/28 09:58:50;;;;;;;;;;;7.90;99.90;;;;;;5060811;28;19990;-76
2022/11/28 10:01:31;;;;;;;;;;;8.00;99.90;;;;;;5075086;28;20281;-76
2022/11/28 10:04:15;;;;;;;;;;;7.90;99.90;;;;;;5074671;28;20258;-76
2022/11/28 10:06:43;;;;;;;;;;;8.00;99.90;;;;;;5039872;28;19931;-76
2022/11/28 10:09:11;;;;;;;;;;;8.00;99.90;;;;;;5075024;28;20257;-76
2022/11/28 10:11:47;;;;;;;;;;;8.00;99.90;;;;;;5074768;28;19916;-77
2022/11/28 10:14:43;;;;;;;;;;;8.10;99.90;;;;;;5075648;28;19909;-76
2022/11/28 10:17:14;;;;;;;;;;;8.20;99.90;;;;;;5076002;28;19932;-77
2022/11/28 10:19:52;;;;;;;;;;;8.20;99.90;;;;;;5074543;28;19932;-76
2022/11/28 10:22:19;;;;;;;;;;;8.30;99.90;;;;;;5075333;28;19913;-77
2022/11/28 10:24:53;;;;;;;;;;;8.30;99.90;;;;;;5056633;28;19914;-77
2022/11/28 10:27:19;;;;;;;;;;;8.30;99.90;;;;;;5057295;28;20034;-76
2022/11/28 10:29:51;;;;;;;;;;;8.40;99.90;;;;;;5056652;28;19913;-76
2022/11/28 10:32:18;;;;;;;;;;;8.40;99.90;;;;;;5075101;28;19915;-76
2022/11/28 10:34:50;;;;;;;;;;;8.40;99.90;;;;;;5074237;28;19997;-76
2022/11/28 10:37:18;;;;;;;;;;;8.50;99.90;;;;;;5075088;28;19987;-76
2022/11/28 10:39:47;;;;;;;;;;;8.50;99.90;;;;;;5074317;28;20316;-76
2022/11/28 10:42:16;;;;;;;;;;;8.50;99.90;;;;;;5074864;28;19954;-76
2022/11/28 10:44:51;;;;;;;;;;;8.50;99.90;;;;;;5074537;28;19915;-76
2022/11/28 10:47:29;;;;;;;;;;;8.50;99.90;;;;;;5074950;28;19931;-76
2022/11/28 10:50:00;;;;;;;;;;;8.50;99.90;;;;;;5074106;28;19908;-76
2022/11/28 10:52:32;;;;;;;;;;;8.50;99.90;;;;;;5074670;28;20391;-77
2022/11/28 10:55:06;;;;;;;;;;;8.60;99.90;;;;;;5074242;28;20365;-76
2022/11/28 10:57:42;;;;;;;;;;;8.50;99.90;;;;;;5074795;28;20361;-76
2022/11/28 11:00:11;;;;;;;;;;;8.60;99.90;;;;;;5074452;28;19912;-76
2022/11/28 11:02:48;;;;;;;;;;;8.50;99.90;;;;;;5074719;28;19909;-76
2022/11/28 11:05:15;;;;;;;;;;;8.60;99.90;;;;;;5074298;28;19920;-77
2022/11/28 11:08:02;;;;;;;;;;;8.60;99.90;;;;;;5074005;28;20004;-76
2022/11/28 11:10:48;;;;;;;;;;;8.60;99.90;;;;;;5074546;28;20273;-75
2022/11/28 11:13:19;;;;;;;;;;;8.60;99.90;;;;;;5074855;28;20455;-75
2022/11/28 11:15:50;;;;;;;;;;;8.60;99.90;;;;;;5055944;28;19915;-75
2022/11/28 11:18:21;;;;;;;;;;;8.60;99.90;;;;;;5074566;28;19908;-76
2022/11/28 11:20:46;;;;;;;;;;;8.70;99.90;;;;;;5073716;28;19967;-75
2022/11/28 11:23:15;;;;;;;;;;;8.70;99.90;;;;;;5074153;28;19909;-75
2022/11/28 11:26:10;;;;;;;;;;;8.60;99.90;;;;;;5073872;28;19977;-75
2022/11/28 11:28:35;;;;;;;;;;;8.60;99.90;;;;;;5055929;28;20049;-75
2022/11/28 11:31:05;;;;;;;;;;;8.60;99.90;;;;;;5073486;28;19991;-75
2022/11/28 11:33:35;;;;;;;;;;;8.60;99.90;;;;;;5074161;28;19913;-75
2022/11/28 11:36:02;;;;;;;;;;;8.60;99.90;;;;;;5073427;28;20000;-75
2022/11/28 11:38:28;;;;;;;;;;;8.70;99.90;;;;;;5073973;28;19909;-75
2022/11/28 11:40:54;;;;;;;;;;;8.70;99.90;;;;;;5073502;28;19909;-75
2022/11/28 11:43:37;;;;;;;;;;;8.70;99.90;;;;;;5073899;28;20417;-75
2022/11/28 11:46:06;;;;;;;;;;;8.70;99.90;;;;;;5072202;28;19909;-76
2022/11/28 11:48:36;;;;;;;;;;;8.80;99.90;;;;;;5073876;28;19912;-75
2022/11/28 11:51:02;;;;;;;;;;;8.80;99.90;;;;;;5073249;28;19916;-75
2022/11/28 11:53:28;;;;;;;;;;;8.80;99.90;;;;;;5074118;28;20350;-75
2022/11/28 11:55:54;;;;;;;;;;;8.90;99.90;;;;;;5072682;28;19966;-75
2022/11/28 11:58:40;;;;;;;;;;;8.80;99.90;;;;;;5073640;28;19931;-75
2022/11/28 12:01:06;;;;;;;;;;;8.80;99.90;;;;;;5054135;28;20388;-75
2022/11/28 12:03:52;;;;;;;;;;;8.90;99.90;;;;;;5073594;28;19909;-75
2022/11/28 12:06:28;;;;;;;;;;;8.90;99.90;;;;;;5073092;28;19972;-75
2022/11/28 12:08:59;;;;;;;;;;;8.80;99.90;;;;;;5072792;28;20011;-76
2022/11/28 12:11:28;;;;;;;;;;;8.80;99.90;;;;;;5073496;28;19908;-75
2022/11/28 12:13:56;;;;;;;;;;;8.80;99.90;;;;;;5072442;28;19909;-75
2022/11/28 12:16:39;;;;;;;;;;;8.80;99.90;;;;;;5072944;28;20415;-75
2022/11/28 12:19:13;;;;;;;;;;;8.80;99.90;;;;;;5072542;28;20070;-76
2022/11/28 12:21:50;;;;;;;;;;;8.80;99.90;;;;;;5072961;28;19908;-76
2022/11/28 12:24:19;;;;;;;;;;;8.70;99.90;;;;;;5073031;28;19934;-75
2022/11/28 12:26:50;;;;;;;;;;;8.70;99.90;;;;;;5072282;28;20392;-75
2022/11/28 12:29:28;;;;;;;;;;;8.70;99.90;;;;;;5073057;28;19908;-75
2022/11/28 12:32:12;;;;;;;;;;;8.60;99.90;;;;;;5072274;28;19908;-75
2022/11/28 12:34:56;;;;;;;;;;;8.50;99.90;;;;;;5073077;28;20381;-75
2022/11/28 12:37:40;;;;;;;;;;;8.50;99.90;;;;;;5073053;28;19908;-75
2022/11/28 12:40:15;;;;;;;;;;;8.50;99.90;;;;;;5072334;28;19909;-75
2022/11/28 12:42:47;;;;;;;;;;;8.50;99.90;;;;;;5072925;28;20380;-75
2022/11/28 12:45:13;;;;;;;;;;;8.40;99.90;;;;;;5072932;28;20361;-75
2022/11/28 12:47:38;;;;;;;;;;;8.40;99.90;;;;;;5072800;28;19908;-74
2022/11/28 12:50:23;;;;;;;;;;;8.40;99.90;;;;;;5072379;28;20579;-75
2022/11/28 12:52:52;;;;;;;;;;;8.40;99.90;;;;;;5071962;28;20262;-74
2022/11/28 12:55:35;;;;;;;;;;;8.40;99.90;;;;;;5072493;28;19909;-75
2022/11/28 12:58:13;;;;;;;;;;;8.40;99.90;;;;;;5072121;28;19913;-75
2022/11/28 13:00:48;;;;;;;;;;;8.40;99.90;;;;;;5072616;28;19908;-75
2022/11/28 13:03:17;;;;;;;;;;;8.40;99.90;;;;;;5071841;28;19913;-75
2022/11/28 13:05:58;;;;;;;;;;;8.50;99.90;;;;;;5061793;28;19931;-75
2022/11/28 13:08:31;;;;;;;;;;;8.50;99.90;;;;;;5071702;28;20218;-75
2022/11/28 13:10:57;;;;;;;;;;;8.40;99.90;;;;;;5071995;28;20383;-75
2022/11/28 13:13:28;;;;;;;;;;;8.50;99.90;;;;;;5072043;28;19908;-75
2022/11/28 13:16:02;;;;;;;;;;;8.50;99.90;;;;;;5071825;28;19909;-75
2022/11/28 13:18:34;;;;;;;;;;;8.50;99.90;;;;;;5072171;28;19909;-76
2022/11/28 13:21:15;;;;;;;;;;;8.50;99.90;;;;;;5071810;28;19963;-75
2022/11/28 13:24:01;;;;;;;;;;;8.60;99.90;;;;;;5054281;28;19924;-76
2022/11/28 13:26:27;;;;;;;;;;;8.50;99.90;;;;;;5072625;28;19919;-76
2022/11/28 13:29:12;;;;;;;;;;;8.60;99.90;;;;;;5071637;28;19912;-75
2022/11/28 13:31:52;;;;;;;;;;;8.60;99.90;;;;;;5072357;28;20384;-75
2022/11/28 13:34:19;;;;;;;;;;;8.60;99.90;;;;;;5072674;28;20321;-76
2022/11/28 13:37:03;;;;;;;;;;;8.60;99.90;;;;;;5072323;28;19908;-75
2022/11/28 13:39:40;;;;;;;;;;;8.60;99.90;;;;;;5072250;28;19909;-75
2022/11/28 13:42:12;;;;;;;;;;;8.70;99.90;;;;;;5071877;28;19912;-75
2022/11/28 13:44:43;;;;;;;;;;;8.70;99.90;;;;;;5072147;28;19951;-75
2022/11/28 13:47:13;;;;;;;;;;;8.70;99.90;;;;;;5071645;28;19966;-75
2022/11/28 13:49:38;;;;;;;;;;;8.60;99.90;;;;;;5072086;28;19916;-75
2022/11/28 13:52:16;;;;;;;;;;;8.60;99.90;;;;;;5071717;28;20357;-75
2022/11/28 13:54:43;;;;;;;;;;;8.70;99.90;;;;;;5072285;28;19999;-75
2022/11/28 13:57:24;;;;;;;;;;;8.70;99.90;;;;;;5071733;28;19930;-75
2022/11/28 14:00:00;;;;;;;;;;;8.80;99.90;;;;;;5071498;28;19908;-74
2022/11/28 14:02:26;;;;;;;;;;;8.80;99.90;;;;;;5071901;28;19909;-74
2022/11/28 14:04:51;;;;;;;;;;;8.80;99.90;;;;;;5071314;28;19921;-74
2022/11/28 14:07:23;;;;;;;;;;;8.80;99.90;;;;;;5071711;28;19927;-74
2022/11/28 14:09:49;;;;;;;;;;;8.80;99.90;;;;;;5074563;28;19909;-74
2022/11/28 14:12:20;;;;;;;;;;;8.80;99.90;;;;;;5075314;28;20285;-74
2022/11/28 14:15:01;;;;;;;;;;;8.90;99.90;;;;;;5075310;28;19909;-74
2022/11/28 14:17:39;;;;;;;;;;;8.90;99.90;;;;;;5074622;28;19916;-74
2022/11/28 14:20:23;;;;;;;;;;;9.00;99.90;;;;;;5056860;28;19909;-76
2022/11/28 14:23:02;;;;;;;;;;;8.90;99.90;;;;;;5056949;28;20358;-75
2022/11/28 14:25:30;;;;;;;;;;;8.90;99.90;;;;;;5074989;28;19958;-75
2022/11/28 14:27:57;;;;;;;;;;;8.90;99.90;;;;;;5074328;28;20286;-75
2022/11/28 14:30:43;;;;;;;;;;;8.80;99.90;;;;;;5074818;28;19908;-75
2022/11/28 14:33:21;;;;;;;;;;;8.70;99.90;;;;;;5073858;28;19913;-75
2022/11/28 14:35:53;;;;;;;;;;;8.70;99.90;;;;;;5075164;28;19915;-76
2022/11/28 14:38:27;;;;;;;;;;;8.60;99.90;;;;;;5075051;28;19908;-75
2022/11/28 14:40:56;;;;;;;;;;;8.60;99.90;;;;;;5074231;28;19915;-75
2022/11/28 14:43:29;;;;;;;;;;;8.50;99.90;;;;;;5074203;28;20266;-75
2022/11/28 14:46:13;;;;;;;;;;;8.50;99.90;;;;;;5073799;28;19919;-77
2022/11/28 14:48:41;;;;;;;;;;;8.40;99.90;;;;;;5074579;28;19912;-77